createdAt,value
2023-05-14T00:02:00.571Z,10.82
2023-05-14T00:05:03.999Z,9.73
2023-05-14T00:08:07.058Z,9.88
2023-05-14T00:11:10.157Z,10.18
2023-05-14T00:14:13.026Z,9.73
2023-05-14T00:17:16.255Z,9.73
2023-05-14T00:20:19.469Z,13.23
2023-05-14T00:23:23.118Z,11.15
2023-05-14T00:26:26.483Z,9.50
2023-05-14T00:29:29.644Z,11.63
2023-05-14T00:32:33.514Z,12.30
2023-05-14T00:35:36.585Z,10.57
2023-05-14T00:38:39.508Z,13.38
2023-05-14T00:41:44.200Z,14.00
2023-05-14T00:44:47.401Z,14.63
2023-05-14T00:47:51.320Z,13.70
2023-05-14T00:50:54.742Z,12.55
2023-05-14T00:53:58.177Z,11.10
2023-05-14T00:57:01.326Z,12.85
2023-05-14T01:00:05.531Z,9.87
2023-05-14T01:03:09.342Z,10.18
2023-05-14T01:06:34.669Z,11.70
2023-05-14T01:10:07.205Z,9.80
2023-05-14T01:13:26.625Z,9.60
2023-05-14T01:16:33.510Z,9.37
2023-05-14T01:19:47.908Z,9.35
2023-05-14T01:22:51.144Z,10.52
2023-05-14T01:25:55.878Z,10.50
2023-05-14T01:29:08.133Z,8.30
2023-05-14T01:32:13.692Z,10.67
2023-05-14T01:35:18.401Z,11.20
2023-05-14T01:38:26.109Z,10.02
2023-05-14T01:41:33.037Z,11.30
2023-05-14T01:44:37.161Z,10.05
2023-05-14T01:47:40.340Z,10.37
2023-05-14T01:50:43.785Z,7.82
2023-05-14T01:53:47.075Z,10.15
2023-05-14T01:56:50.074Z,7.63
2023-05-14T01:59:53.416Z,8.52
2023-05-14T02:02:56.701Z,9.07
2023-05-14T02:06:02.652Z,8.40
2023-05-14T02:09:05.830Z,9.63
2023-05-14T02:12:09.389Z,9.45
2023-05-14T02:15:12.921Z,5.65
2023-05-14T02:18:16.224Z,6.50
2023-05-14T02:21:19.275Z,8.35
2023-05-14T02:24:22.757Z,8.00
2023-05-14T02:27:26.288Z,7.95
2023-05-14T02:30:30.275Z,7.25
2023-05-14T02:33:33.566Z,8.00
2023-05-14T02:36:36.784Z,9.05
2023-05-14T02:39:40.599Z,8.18
2023-05-14T02:42:43.596Z,7.45
2023-05-14T02:45:47.410Z,6.97
2023-05-14T02:48:50.445Z,6.47
2023-05-14T02:51:54.488Z,6.10
2023-05-14T02:54:57.764Z,5.70
2023-05-14T02:58:00.671Z,7.93
2023-05-14T03:01:03.775Z,8.05
2023-05-14T03:04:07.825Z,6.10
2023-05-14T03:07:10.846Z,6.63
2023-05-14T03:10:13.816Z,8.45
2023-05-14T03:13:18.007Z,6.22
2023-05-14T03:16:20.966Z,7.95
2023-05-14T03:19:23.829Z,8.80
2023-05-14T03:22:27.127Z,10.57
2023-05-14T03:25:30.380Z,9.75
2023-05-14T03:28:34.577Z,6.35
2023-05-14T03:31:37.989Z,6.07
2023-05-14T03:34:41.770Z,7.57
2023-05-14T03:37:45.178Z,7.18
2023-05-14T03:40:48.287Z,6.65
2023-05-14T03:43:51.675Z,7.07
2023-05-14T03:46:54.628Z,7.78
2023-05-14T03:49:58.564Z,6.07
2023-05-14T03:53:01.771Z,6.78
2023-05-14T03:56:06.795Z,9.85
2023-05-14T03:59:10.318Z,7.28
2023-05-14T04:02:13.673Z,6.68
2023-05-14T04:05:16.899Z,8.03
2023-05-14T04:08:20.002Z,8.25
2023-05-14T04:11:23.184Z,8.82
2023-05-14T04:14:26.354Z,8.88
2023-05-14T04:17:29.750Z,6.63
2023-05-14T04:20:33.114Z,7.23
2023-05-14T04:23:36.466Z,6.43
2023-05-14T04:26:39.471Z,6.53
2023-05-14T04:29:42.599Z,6.75
2023-05-14T04:32:45.903Z,8.25
2023-05-14T04:35:49.314Z,6.33
2023-05-14T04:38:52.772Z,8.65
2023-05-14T04:41:56.152Z,7.78
2023-05-14T04:44:59.280Z,7.15
2023-05-14T04:48:04.214Z,6.47
2023-05-14T04:51:07.459Z,7.60
2023-05-14T04:54:10.576Z,10.55
2023-05-14T04:57:13.611Z,8.40
2023-05-14T05:00:17.524Z,8.38
2023-05-14T05:03:20.573Z,10.48
2023-05-14T05:06:23.865Z,9.33
2023-05-14T05:09:27.055Z,6.63
2023-05-14T05:12:30.410Z,7.55
2023-05-14T05:15:33.657Z,7.68
2023-05-14T05:18:36.906Z,7.38
2023-05-14T05:21:41.028Z,8.97
2023-05-14T05:24:44.576Z,8.00
2023-05-14T05:27:47.662Z,9.57
2023-05-14T05:30:50.980Z,6.90
2023-05-14T05:33:53.967Z,7.25
2023-05-14T05:36:57.125Z,10.80
2023-05-14T05:40:00.162Z,7.82
2023-05-14T05:43:03.281Z,7.70
2023-05-14T05:46:07.428Z,9.48
2023-05-14T05:49:10.733Z,7.93
2023-05-14T05:52:14.102Z,9.73
2023-05-14T05:55:17.364Z,6.97
2023-05-14T05:58:20.574Z,6.30
2023-05-14T06:01:23.700Z,9.23
2023-05-14T06:04:26.813Z,7.20
2023-05-14T06:07:30.019Z,7.60
2023-05-14T06:10:35.049Z,8.48
2023-05-14T06:13:38.066Z,8.15
2023-05-14T06:16:41.696Z,8.43
2023-05-14T06:19:44.762Z,7.10
2023-05-14T06:22:47.845Z,8.10
2023-05-14T06:25:51.365Z,5.90
2023-05-14T06:28:54.682Z,7.15
2023-05-14T06:32:01.932Z,6.10
2023-05-14T06:35:06.340Z,7.88
2023-05-14T06:38:09.373Z,6.80
2023-05-14T06:41:12.461Z,6.07
2023-05-14T06:44:19.523Z,7.70
2023-05-14T06:47:22.752Z,6.60
2023-05-14T06:50:26.086Z,6.35
2023-05-14T06:53:28.929Z,7.73
2023-05-14T06:56:32.179Z,5.85
2023-05-14T06:59:35.265Z,7.38
2023-05-14T07:02:38.601Z,7.05
2023-05-14T07:05:42.363Z,6.60
2023-05-14T07:08:46.288Z,6.83
2023-05-14T07:11:49.528Z,9.85
2023-05-14T07:14:52.701Z,6.70
2023-05-14T07:17:55.925Z,8.55
2023-05-14T07:20:59.228Z,9.52
2023-05-14T07:24:02.461Z,6.10
2023-05-14T07:27:06.394Z,8.68
2023-05-14T07:30:09.943Z,7.47
2023-05-14T07:33:13.469Z,6.00
2023-05-14T07:36:16.885Z,9.48
2023-05-14T07:39:20.097Z,7.53
2023-05-14T07:42:35.321Z,9.32
2023-05-14T07:45:40.365Z,10.95
2023-05-14T07:48:46.396Z,7.07
2023-05-14T07:51:49.858Z,7.85
2023-05-14T07:54:53.332Z,10.27
2023-05-14T07:57:56.681Z,7.20
2023-05-14T08:01:01.549Z,6.65
2023-05-14T08:04:04.814Z,7.15
2023-05-14T08:07:08.863Z,10.20
2023-05-14T08:10:12.218Z,9.03
2023-05-14T08:13:15.260Z,6.43
2023-05-14T08:16:18.409Z,7.68
2023-05-14T08:19:21.632Z,7.03
2023-05-14T08:22:24.682Z,5.72
2023-05-14T08:25:27.877Z,7.03
2023-05-14T08:28:31.028Z,6.25
2023-05-14T08:31:34.781Z,7.13
2023-05-14T08:34:38.060Z,12.70
2023-05-14T08:37:40.976Z,7.28
2023-05-14T08:40:55.891Z,7.77
2023-05-14T08:44:13.181Z,7.30
2023-05-14T08:47:19.278Z,7.15
2023-05-14T08:50:23.787Z,7.45
2023-05-14T08:53:27.570Z,6.90
2023-05-14T08:56:33.260Z,7.27
2023-05-14T08:59:36.904Z,9.35
2023-05-14T09:02:41.137Z,8.88
2023-05-14T09:05:44.804Z,8.20
2023-05-14T09:08:48.129Z,9.52
2023-05-14T09:11:53.121Z,6.90
2023-05-14T09:14:56.498Z,6.75
2023-05-14T09:17:59.647Z,7.00
2023-05-14T09:21:02.703Z,6.95
2023-05-14T09:24:06.830Z,5.65
2023-05-14T09:27:15.894Z,6.73
2023-05-14T09:30:19.216Z,8.68
2023-05-14T09:33:29.597Z,5.95
2023-05-14T09:36:34.822Z,8.23
2023-05-14T09:39:38.550Z,7.07
2023-05-14T09:42:41.896Z,5.83
2023-05-14T09:45:44.922Z,9.30
2023-05-14T09:48:48.282Z,9.93
2023-05-14T09:51:51.841Z,7.10
2023-05-14T09:54:54.932Z,7.53
2023-05-14T09:57:58.285Z,8.30
2023-05-14T10:01:02.038Z,7.25
2023-05-14T10:04:07.838Z,5.93
2023-05-14T10:07:12.138Z,8.52
2023-05-14T10:10:23.885Z,5.78
2023-05-14T10:13:39.843Z,5.80
2023-05-14T10:16:48.243Z,5.88
2023-05-14T10:19:57.250Z,6.50
2023-05-14T10:23:01.267Z,9.35
2023-05-14T10:26:05.283Z,5.50
2023-05-14T10:29:11.119Z,5.57
2023-05-14T10:32:15.242Z,5.57
2023-05-14T10:35:22.870Z,5.72
2023-05-14T10:38:34.069Z,8.63
2023-05-14T10:41:39.260Z,6.72
2023-05-14T10:45:09.239Z,5.40
2023-05-14T10:48:12.274Z,5.55
2023-05-14T10:51:17.753Z,7.47
2023-05-14T10:54:23.533Z,5.43
2023-05-14T10:57:29.583Z,5.32
2023-05-14T11:00:35.919Z,5.50
2023-05-14T11:03:47.098Z,5.15
2023-05-14T11:06:53.653Z,6.00
2023-05-14T11:10:08.392Z,4.90
2023-05-14T11:13:11.932Z,5.75
2023-05-14T11:16:23.221Z,7.30
2023-05-14T11:19:26.807Z,6.57
2023-05-14T11:22:33.775Z,5.25
2023-05-14T11:25:37.362Z,6.78
2023-05-14T11:28:41.104Z,7.88
2023-05-14T11:31:44.292Z,7.47
2023-05-14T11:34:47.652Z,7.95
2023-05-14T11:37:54.634Z,6.72
2023-05-14T11:40:59.706Z,6.63
2023-05-14T11:44:03.616Z,6.35
2023-05-14T11:47:07.421Z,7.50
2023-05-14T11:50:13.069Z,6.55
2023-05-14T11:53:26.669Z,7.20
2023-05-14T11:56:29.947Z,8.65
2023-05-14T11:59:32.959Z,7.78
2023-05-14T12:02:37.835Z,10.30
2023-05-14T12:05:41.197Z,7.30
2023-05-14T12:08:44.311Z,8.55
2023-05-14T12:11:53.203Z,8.18
2023-05-14T12:14:56.590Z,6.90
2023-05-14T12:18:00.405Z,7.80
2023-05-14T12:21:08.545Z,8.00
2023-05-14T12:24:17.835Z,9.82
2023-05-14T12:27:24.554Z,8.32
2023-05-14T12:30:27.679Z,6.57
2023-05-14T12:33:30.917Z,8.60
2023-05-14T12:36:34.252Z,9.50
2023-05-14T12:39:37.865Z,8.52
2023-05-14T12:42:41.323Z,11.02
2023-05-14T12:45:44.583Z,8.20
2023-05-14T12:48:47.657Z,8.83
2023-05-14T12:51:56.759Z,9.30
2023-05-14T12:55:10.175Z,8.50
2023-05-14T12:58:13.576Z,8.48
2023-05-14T13:01:16.710Z,8.75
2023-05-14T13:04:22.536Z,9.67
2023-05-14T13:07:25.958Z,9.18
2023-05-14T13:10:29.257Z,9.60
2023-05-14T13:13:32.537Z,7.47
2023-05-14T13:16:35.790Z,8.05
2023-05-14T13:19:39.428Z,8.53
2023-05-14T13:22:42.692Z,8.07
2023-05-14T13:25:47.955Z,7.68
2023-05-14T13:28:52.764Z,8.32
2023-05-14T13:31:55.947Z,9.38
2023-05-14T13:34:59.011Z,6.40
2023-05-14T13:38:02.054Z,7.78
2023-05-14T13:41:05.502Z,11.05
2023-05-14T13:44:08.713Z,7.78
2023-05-14T13:47:11.927Z,6.53
2023-05-14T13:50:15.315Z,6.57
2023-05-14T13:53:20.054Z,6.70
2023-05-14T13:56:23.575Z,5.78
2023-05-14T13:59:28.040Z,4.50
2023-05-14T14:02:32.258Z,6.10
2023-05-14T14:05:36.959Z,4.20
2023-05-14T14:08:40.646Z,5.32
2023-05-14T14:11:43.992Z,3.30
2023-05-14T14:14:47.157Z,4.40
2023-05-14T14:17:50.235Z,3.58
2023-05-14T14:20:53.222Z,4.07
2023-05-14T14:23:56.239Z,3.40
2023-05-14T14:26:59.255Z,2.95
2023-05-14T14:30:02.976Z,3.40
2023-05-14T14:33:06.158Z,3.17
2023-05-14T14:36:09.300Z,3.43
2023-05-14T14:39:12.244Z,3.03
2023-05-14T14:42:15.217Z,3.20
2023-05-14T14:45:18.738Z,3.42
2023-05-14T14:48:23.514Z,3.70
2023-05-14T14:51:26.679Z,2.80
2023-05-14T14:54:30.037Z,2.50
2023-05-14T14:57:33.148Z,3.35
2023-05-14T15:00:36.234Z,4.05
2023-05-14T15:03:39.500Z,3.78
2023-05-14T15:06:42.670Z,3.90
2023-05-14T15:09:45.691Z,3.25
2023-05-14T15:12:49.068Z,3.60
2023-05-14T15:15:54.917Z,3.75
2023-05-14T15:18:58.151Z,3.33
2023-05-14T15:22:01.181Z,3.77
2023-05-14T15:25:04.785Z,2.75
2023-05-14T15:28:07.824Z,3.75
2023-05-14T15:31:10.970Z,3.33
2023-05-14T15:34:16.519Z,5.32
2023-05-14T15:37:19.418Z,3.33
2023-05-14T15:40:22.760Z,6.03
2023-05-14T15:43:26.152Z,3.70
2023-05-14T15:46:29.462Z,3.05
2023-05-14T15:49:32.409Z,5.13
2023-05-14T15:52:36.517Z,2.93
2023-05-14T15:55:39.627Z,3.22
2023-05-14T15:58:42.574Z,3.67
2023-05-14T16:01:45.805Z,3.95
2023-05-14T16:04:49.653Z,3.72
2023-05-14T16:07:53.252Z,4.07
2023-05-14T16:10:56.606Z,5.10
2023-05-14T16:13:59.977Z,5.47
2023-05-14T16:17:03.295Z,3.45
2023-05-14T16:20:07.026Z,3.67
2023-05-14T16:23:10.286Z,3.33
2023-05-14T16:26:13.691Z,4.38
2023-05-14T16:29:17.019Z,4.75
2023-05-14T16:32:20.607Z,3.53
2023-05-14T16:35:23.748Z,3.92
2023-05-14T16:38:26.989Z,4.53
2023-05-14T16:41:30.254Z,5.18
2023-05-14T16:44:33.647Z,4.35
2023-05-14T16:47:36.699Z,4.28
2023-05-14T16:50:40.105Z,4.53
2023-05-14T16:53:43.193Z,4.17
2023-05-14T16:56:49.367Z,4.25
2023-05-14T16:59:53.541Z,5.25
2023-05-14T17:02:56.995Z,4.30
2023-05-14T17:06:00.708Z,6.28
2023-05-14T17:09:05.466Z,4.90
2023-05-14T17:12:09.776Z,5.28
2023-05-14T17:15:13.028Z,6.80
2023-05-14T17:18:16.306Z,6.57
2023-05-14T17:21:19.393Z,5.18
2023-05-14T17:24:22.464Z,6.03
2023-05-14T17:27:26.504Z,5.40
2023-05-14T17:30:29.865Z,5.30
2023-05-14T17:33:33.334Z,5.95
2023-05-14T17:36:36.811Z,5.80
2023-05-14T17:39:39.934Z,6.07
2023-05-14T17:42:45.574Z,8.20
2023-05-14T17:48:56.580Z,5.05
2023-05-14T17:52:00.141Z,6.03
2023-05-14T17:55:04.035Z,5.03
2023-05-14T17:58:07.295Z,5.38
2023-05-14T18:01:10.466Z,6.72
2023-05-14T18:04:14.048Z,6.38
2023-05-14T18:07:18.910Z,5.30
2023-05-14T18:10:22.276Z,7.80
2023-05-14T18:13:25.477Z,7.40
2023-05-14T18:16:29.112Z,6.70
2023-05-14T18:19:32.655Z,7.82
2023-05-14T18:22:36.013Z,6.78
2023-05-14T18:25:39.758Z,6.77
2023-05-14T18:28:43.487Z,7.55
2023-05-14T18:31:47.129Z,6.28
2023-05-14T18:34:50.953Z,6.93
2023-05-14T18:37:55.089Z,8.70
2023-05-14T18:40:58.431Z,7.30
2023-05-14T18:44:02.596Z,11.98
2023-05-14T18:47:06.235Z,13.40
2023-05-14T18:50:10.342Z,16.50
2023-05-14T18:53:14.004Z,9.63
2023-05-14T18:56:17.393Z,10.57
2023-05-14T18:59:20.914Z,11.88
2023-05-14T19:02:24.476Z,9.18
2023-05-14T19:05:29.370Z,9.57
2023-05-14T19:08:32.873Z,9.32
2023-05-14T19:11:36.379Z,8.70
2023-05-14T19:14:39.558Z,11.65
2023-05-14T19:17:43.002Z,8.43
2023-05-14T19:20:47.153Z,7.80
2023-05-14T19:23:50.602Z,7.03
2023-05-14T19:26:55.518Z,7.17
2023-05-14T19:29:59.089Z,8.23
2023-05-14T19:33:02.707Z,11.73
2023-05-14T19:36:06.412Z,8.65
2023-05-14T19:39:10.124Z,9.93
2023-05-14T19:42:13.645Z,8.63
2023-05-14T19:45:17.187Z,9.02
2023-05-14T19:48:20.563Z,7.93
2023-05-14T19:51:23.747Z,8.55
2023-05-14T19:54:26.884Z,10.20
2023-05-14T19:57:29.976Z,11.17
2023-05-14T20:00:33.807Z,9.73
2023-05-14T20:03:37.735Z,9.60
2023-05-14T20:06:41.909Z,8.20
2023-05-14T20:09:44.913Z,8.63
2023-05-14T20:12:47.914Z,9.87
2023-05-14T20:15:51.396Z,8.57
2023-05-14T20:18:54.679Z,7.65
2023-05-14T20:21:57.831Z,6.00
2023-05-14T20:25:00.904Z,8.52
2023-05-14T20:28:04.558Z,6.80
2023-05-14T20:31:07.924Z,7.82
2023-05-14T20:34:11.015Z,11.43
2023-05-14T20:37:14.262Z,7.88
2023-05-14T20:40:17.510Z,10.32
2023-05-14T20:43:20.783Z,9.13
2023-05-14T20:46:23.914Z,10.45
2023-05-14T20:49:28.407Z,7.45
2023-05-14T20:52:50.677Z,6.50
2023-05-14T20:55:53.833Z,8.68
2023-05-14T20:58:57.010Z,6.67
2023-05-14T21:02:00.344Z,6.47
2023-05-14T21:05:03.862Z,7.25
2023-05-14T21:08:08.027Z,7.80
2023-05-14T21:11:11.231Z,7.95
2023-05-14T21:14:14.407Z,8.83
2023-05-14T21:17:17.832Z,8.50
2023-05-14T21:20:21.012Z,8.02
2023-05-14T21:23:24.345Z,7.00
2023-05-14T21:26:32.065Z,8.35
2023-05-14T21:29:35.372Z,7.67
2023-05-14T21:32:38.489Z,5.43
2023-05-14T21:35:42.182Z,6.60
2023-05-14T21:38:45.377Z,6.15
2023-05-14T21:41:48.952Z,6.82
2023-05-14T21:44:52.046Z,5.70
2023-05-14T21:47:55.362Z,6.35
2023-05-14T21:50:58.537Z,6.47
2023-05-14T21:54:01.566Z,10.05
2023-05-14T21:57:05.034Z,6.20
2023-05-14T22:00:12.585Z,7.47
2023-05-14T22:03:18.159Z,8.25
2023-05-14T22:06:21.577Z,8.48
2023-05-14T22:09:24.852Z,5.65
2023-05-14T22:12:27.923Z,6.10
2023-05-14T22:15:31.300Z,5.70
2023-05-14T22:18:34.816Z,8.27
2023-05-14T22:21:38.018Z,7.80
2023-05-14T22:24:40.988Z,6.85
2023-05-14T22:27:44.161Z,8.20
2023-05-14T22:30:47.195Z,12.43
2023-05-14T22:33:50.352Z,7.30
2023-05-14T22:36:53.553Z,8.30
2023-05-14T22:39:56.913Z,8.27
2023-05-14T22:43:00.359Z,8.02
2023-05-14T22:46:03.867Z,8.07
2023-05-14T22:49:07.311Z,9.90
2023-05-14T22:52:10.684Z,8.25
2023-05-14T22:55:14.116Z,7.38
2023-05-14T22:58:17.074Z,9.52
2023-05-14T23:01:20.478Z,10.33
2023-05-14T23:04:23.750Z,12.38
2023-05-14T23:07:27.070Z,10.95
2023-05-14T23:10:30.059Z,12.80
2023-05-14T23:13:33.375Z,14.75
2023-05-14T23:16:36.851Z,13.53
2023-05-14T23:19:39.883Z,12.82
2023-05-14T23:22:42.961Z,13.38
2023-05-14T23:25:46.190Z,14.90
2023-05-14T23:28:49.253Z,9.57
2023-05-14T23:31:52.737Z,10.77
2023-05-14T23:34:55.994Z,12.77
2023-05-14T23:37:59.258Z,13.73
2023-05-14T23:41:02.442Z,10.55
2023-05-14T23:44:06.018Z,15.02
2023-05-14T23:47:09.644Z,15.07
2023-05-14T23:50:13.082Z,11.57
2023-05-14T23:53:16.344Z,15.00
2023-05-14T23:56:19.820Z,13.73
2023-05-14T23:59:22.909Z,12.32
